sensor_id;sensor_type;location;lat;lon;timestamp;temperature;humidity
54558;DHT22;40452;50.080;20.040;2023-03-14T04:03:19;20.30;41.80
54558;DHT22;40452;50.080;20.040;2023-03-14T04:05:45;20.30;42.60
54558;DHT22;40452;50.080;20.040;2023-03-14T04:08:11;20.40;42.50
54558;DHT22;40452;50.080;20.040;2023-03-14T04:10:36;20.40;42.40
54558;DHT22;40452;50.080;20.040;2023-03-14T04:13:02;20.40;42.40
54558;DHT22;40452;50.080;20.040;2023-03-14T04:15:27;20.40;42.40
54558;DHT22;40452;50.080;20.040;2023-03-14T04:17:58;20.40;42.40
54558;DHT22;40452;50.080;20.040;2023-03-14T04:20:24;20.40;42.50
54558;DHT22;40452;50.080;20.040;2023-03-14T04:22:49;20.40;42.50
54558;DHT22;40452;50.080;20.040;2023-03-14T04:25:15;20.50;42.60
54558;DHT22;40452;50.080;20.040;2023-03-14T04:27:42;20.50;42.60
54558;DHT22;40452;50.080;20.040;2023-03-14T04:30:08;20.50;42.60
54558;DHT22;40452;50.080;20.040;2023-03-14T04:32:34;20.50;42.50
54558;DHT22;40452;50.080;20.040;2023-03-14T04:34:59;20.50;42.50
54558;DHT22;40452;50.080;20.040;2023-03-14T04:37:25;20.50;42.50
54558;DHT22;40452;50.080;20.040;2023-03-14T04:39:50;20.50;42.50
54558;DHT22;40452;50.080;20.040;2023-03-14T04:42:16;20.50;42.40
54558;DHT22;40452;50.080;20.040;2023-03-14T04:44:41;20.50;42.40
54558;DHT22;40452;50.080;20.040;2023-03-14T04:47:08;20.50;42.30
54558;DHT22;40452;50.080;20.040;2023-03-14T04:49:34;20.50;42.40
54558;DHT22;40452;50.080;20.040;2023-03-14T04:51:59;20.50;42.30
54558;DHT22;40452;50.080;20.040;2023-03-14T04:54:25;20.50;42.20
54558;DHT22;40452;50.080;20.040;2023-03-14T04:56:50;20.50;42.20
54558;DHT22;40452;50.080;20.040;2023-03-14T04:59:15;20.50;42.20
54558;DHT22;40452;50.080;20.040;2023-03-14T05:01:41;20.40;42.10
54558;DHT22;40452;50.080;20.040;2023-03-14T05:04:06;20.40;42.10
54558;DHT22;40452;50.080;20.040;2023-03-14T05:06:32;20.40;42.00
54558;DHT22;40452;50.080;20.040;2023-03-14T05:08:57;20.40;42.00
54558;DHT22;40452;50.080;20.040;2023-03-14T05:11:23;20.40;42.00
54558;DHT22;40452;50.080;20.040;2023-03-14T05:13:48;20.50;42.00
54558;DHT22;40452;50.080;20.040;2023-03-14T05:16:14;20.40;42.00
54558;DHT22;40452;50.080;20.040;2023-03-14T05:18:39;20.40;41.90
54558;DHT22;40452;50.080;20.040;2023-03-14T05:21:05;20.40;41.90
54558;DHT22;40452;50.080;20.040;2023-03-14T05:23:31;20.40;41.90
54558;DHT22;40452;50.080;20.040;2023-03-14T05:25:56;20.50;42.00
54558;DHT22;40452;50.080;20.040;2023-03-14T05:28:22;20.40;42.00
54558;DHT22;40452;50.080;20.040;2023-03-14T05:30:48;20.50;42.20
54558;DHT22;40452;50.080;20.040;2023-03-14T05:33:13;20.40;42.20
54558;DHT22;40452;50.080;20.040;2023-03-14T05:35:39;20.40;42.20
54558;DHT22;40452;50.080;20.040;2023-03-14T05:38:04;20.50;42.30
54558;DHT22;40452;50.080;20.040;2023-03-14T05:40:30;20.50;42.90
54558;DHT22;40452;50.080;20.040;2023-03-14T05:42:55;20.50;42.30
54558;DHT22;40452;50.080;20.040;2023-03-14T05:45:21;20.50;42.30
54558;DHT22;40452;50.080;20.040;2023-03-14T06:03:24;20.50;41.70
54558;DHT22;40452;50.080;20.040;2023-03-14T06:05:50;20.50;42.20
54558;DHT22;40452;50.080;20.040;2023-03-14T06:08:26;20.50;42.10
54558;DHT22;40452;50.080;20.040;2023-03-14T06:10:52;20.50;42.20
54558;DHT22;40452;50.080;20.040;2023-03-14T06:13:20;20.50;42.10
54558;DHT22;40452;50.080;20.040;2023-03-14T06:15:46;20.50;42.10
54558;DHT22;40452;50.080;20.040;2023-03-14T06:18:11;20.50;42.10
54558;DHT22;40452;50.080;20.040;2023-03-14T06:20:38;20.50;42.10
54558;DHT22;40452;50.080;20.040;2023-03-14T06:23:05;20.50;42.10
54558;DHT22;40452;50.080;20.040;2023-03-14T06:25:32;20.50;42.10
54558;DHT22;40452;50.080;20.040;2023-03-14T06:27:58;20.50;42.10
54558;DHT22;40452;50.080;20.040;2023-03-14T06:30:23;20.50;42.00
54558;DHT22;40452;50.080;20.040;2023-03-14T06:32:49;20.50;42.10
54558;DHT22;40452;50.080;20.040;2023-03-14T06:35:14;20.50;42.10
54558;DHT22;40452;50.080;20.040;2023-03-14T06:37:41;20.50;42.00
54558;DHT22;40452;50.080;20.040;2023-03-14T06:40:07;20.50;42.10
54558;DHT22;40452;50.080;20.040;2023-03-14T06:42:33;20.50;42.00
54558;DHT22;40452;50.080;20.040;2023-03-14T06:44:59;20.50;42.00
54558;DHT22;40452;50.080;20.040;2023-03-14T06:47:24;20.50;41.90
54558;DHT22;40452;50.080;20.040;2023-03-14T06:49:50;20.50;42.00
54558;DHT22;40452;50.080;20.040;2023-03-14T06:52:15;20.50;42.00
54558;DHT22;40452;50.080;20.040;2023-03-14T06:54:41;20.50;41.90
54558;DHT22;40452;50.080;20.040;2023-03-14T06:57:06;20.50;41.90
54558;DHT22;40452;50.080;20.040;2023-03-14T06:59:32;20.50;41.90
54558;DHT22;40452;50.080;20.040;2023-03-14T07:01:57;20.60;41.90
54558;DHT22;40452;50.080;20.040;2023-03-14T07:04:23;20.50;41.80
54558;DHT22;40452;50.080;20.040;2023-03-14T07:06:48;20.60;41.90
54558;DHT22;40452;50.080;20.040;2023-03-14T07:09:15;20.60;41.80
54558;DHT22;40452;50.080;20.040;2023-03-14T07:11:42;20.60;41.80
54558;DHT22;40452;50.080;20.040;2023-03-14T07:14:08;20.60;41.80
54558;DHT22;40452;50.080;20.040;2023-03-14T07:16:33;20.50;41.80
54558;DHT22;40452;50.080;20.040;2023-03-14T07:19:00;20.50;41.70
54558;DHT22;40452;50.080;20.040;2023-03-14T07:21:26;20.50;41.70
54558;DHT22;40452;50.080;20.040;2023-03-14T07:23:51;20.60;41.80
54558;DHT22;40452;50.080;20.040;2023-03-14T07:26:17;20.60;41.80
54558;DHT22;40452;50.080;20.040;2023-03-14T07:28:43;20.50;41.70
54558;DHT22;40452;50.080;20.040;2023-03-14T07:31:08;20.50;41.60
54558;DHT22;40452;50.080;20.040;2023-03-14T07:33:34;20.60;41.70
54558;DHT22;40452;50.080;20.040;2023-03-14T07:36:00;20.60;41.70
54558;DHT22;40452;50.080;20.040;2023-03-14T15:43:55;20.20;39.90
54558;DHT22;40452;50.080;20.040;2023-03-14T15:46:21;19.90;40.00
54558;DHT22;40452;50.080;20.040;2023-03-14T15:48:48;20.00;40.30
54558;DHT22;40452;50.080;20.040;2023-03-14T15:51:14;20.10;40.40
54558;DHT22;40452;50.080;20.040;2023-03-14T15:53:40;20.10;40.30
54558;DHT22;40452;50.080;20.040;2023-03-14T15:56:12;20.10;40.30
54558;DHT22;40452;50.080;20.040;2023-03-14T15:58:38;20.10;40.30
54558;DHT22;40452;50.080;20.040;2023-03-14T16:01:22;20.10;40.30
54558;DHT22;40452;50.080;20.040;2023-03-14T16:03:48;20.20;40.40
54558;DHT22;40452;50.080;20.040;2023-03-14T16:06:14;20.20;40.40
54558;DHT22;40452;50.080;20.040;2023-03-14T16:08:43;20.20;40.50
54558;DHT22;40452;50.080;20.040;2023-03-14T16:11:13;20.20;40.50
54558;DHT22;40452;50.080;20.040;2023-03-14T16:13:40;20.20;40.60
54558;DHT22;40452;50.080;20.040;2023-03-14T16:16:06;20.20;40.60
54558;DHT22;40452;50.080;20.040;2023-03-14T16:18:34;20.20;40.60
54558;DHT22;40452;50.080;20.040;2023-03-14T16:21:05;20.20;40.60
54558;DHT22;40452;50.080;20.040;2023-03-14T16:23:31;20.20;41.30
54558;DHT22;40452;50.080;20.040;2023-03-14T16:25:58;20.20;40.60
54558;DHT22;40452;50.080;20.040;2023-03-14T16:28:24;20.20;40.70
54558;DHT22;40452;50.080;20.040;2023-03-14T16:30:50;20.30;40.80
54558;DHT22;40452;50.080;20.040;2023-03-14T16:33:16;20.30;40.80
54558;DHT22;40452;50.080;20.040;2023-03-14T16:35:53;20.30;41.00
54558;DHT22;40452;50.080;20.040;2023-03-14T16:38:18;20.30;41.00
54558;DHT22;40452;50.080;20.040;2023-03-14T16:40:44;20.30;41.00
54558;DHT22;40452;50.080;20.040;2023-03-14T16:43:22;20.30;41.10
54558;DHT22;40452;50.080;20.040;2023-03-14T16:45:50;20.30;41.10
54558;DHT22;40452;50.080;20.040;2023-03-14T16:48:16;20.30;41.30
54558;DHT22;40452;50.080;20.040;2023-03-14T16:50:42;20.30;41.50
54558;DHT22;40452;50.080;20.040;2023-03-14T16:53:07;20.40;41.40
54558;DHT22;40452;50.080;20.040;2023-03-14T16:55:33;20.40;41.50
54558;DHT22;40452;50.080;20.040;2023-03-14T16:58:04;20.40;41.60
54558;DHT22;40452;50.080;20.040;2023-03-14T17:00:30;20.40;41.70
54558;DHT22;40452;50.080;20.040;2023-03-14T17:02:56;20.40;41.80
54558;DHT22;40452;50.080;20.040;2023-03-14T17:05:21;20.40;41.80
54558;DHT22;40452;50.080;20.040;2023-03-14T17:07:47;20.40;41.90
54558;DHT22;40452;50.080;20.040;2023-03-14T17:10:12;20.40;41.90
54558;DHT22;40452;50.080;20.040;2023-03-14T17:12:38;20.40;42.00
54558;DHT22;40452;50.080;20.040;2023-03-14T17:15:04;20.40;42.00
54558;DHT22;40452;50.080;20.040;2023-03-14T17:17:30;20.40;42.00
54558;DHT22;40452;50.080;20.040;2023-03-14T17:19:55;20.40;42.10
54558;DHT22;40452;50.080;20.040;2023-03-14T17:22:21;20.40;42.10
54558;DHT22;40452;50.080;20.040;2023-03-14T17:24:46;20.40;42.20
54558;DHT22;40452;50.080;20.040;2023-03-14T17:27:12;20.40;42.10
54558;DHT22;40452;50.080;20.040;2023-03-14T17:29:42;20.40;42.20
54558;DHT22;40452;50.080;20.040;2023-03-14T17:32:11;20.40;42.20
54558;DHT22;40452;50.080;20.040;2023-03-14T17:34:37;20.40;42.40
54558;DHT22;40452;50.080;20.040;2023-03-14T17:37:03;20.40;42.20
54558;DHT22;40452;50.080;20.040;2023-03-14T17:39:28;20.40;42.20
54558;DHT22;40452;50.080;20.040;2023-03-14T17:41:54;20.40;42.20
54558;DHT22;40452;50.080;20.040;2023-03-14T17:44:19;20.40;42.20
54558;DHT22;40452;50.080;20.040;2023-03-14T17:46:51;20.40;42.20
54558;DHT22;40452;50.080;20.040;2023-03-14T17:49:19;20.40;42.20
54558;DHT22;40452;50.080;20.040;2023-03-14T17:51:45;20.40;42.20
54558;DHT22;40452;50.080;20.040;2023-03-14T17:54:10;20.40;42.20
54558;DHT22;40452;50.080;20.040;2023-03-14T17:56:36;20.40;42.20
54558;DHT22;40452;50.080;20.040;2023-03-14T17:59:01;20.40;42.20
54558;DHT22;40452;50.080;20.040;2023-03-14T18:01:28;20.40;42.20
54558;DHT22;40452;50.080;20.040;2023-03-14T18:03:53;20.40;42.20
54558;DHT22;40452;50.080;20.040;2023-03-14T18:06:21;20.40;42.20
54558;DHT22;40452;50.080;20.040;2023-03-14T18:08:47;20.40;42.30
54558;DHT22;40452;50.080;20.040;2023-03-14T18:11:15;20.40;42.30
54558;DHT22;40452;50.080;20.040;2023-03-14T18:13:41;20.40;42.30
54558;DHT22;40452;50.080;20.040;2023-03-14T18:16:07;20.40;42.30
54558;DHT22;40452;50.080;20.040;2023-03-14T18:18:34;20.40;42.40
54558;DHT22;40452;50.080;20.040;2023-03-14T18:21:00;20.40;42.40
54558;DHT22;40452;50.080;20.040;2023-03-14T18:23:25;20.40;42.50
54558;DHT22;40452;50.080;20.040;2023-03-14T18:26:01;20.40;42.50
54558;DHT22;40452;50.080;20.040;2023-03-14T18:28:27;20.40;42.50
54558;DHT22;40452;50.080;20.040;2023-03-14T18:31:00;20.40;42.40
54558;DHT22;40452;50.080;20.040;2023-03-14T18:33:33;20.40;42.40
54558;DHT22;40452;50.080;20.040;2023-03-14T18:36:06;20.40;42.50
54558;DHT22;40452;50.080;20.040;2023-03-14T18:38:32;20.40;42.50
54558;DHT22;40452;50.080;20.040;2023-03-14T18:41:04;20.50;42.60
54558;DHT22;40452;50.080;20.040;2023-03-14T18:43:30;20.40;42.50
54558;DHT22;40452;50.080;20.040;2023-03-14T18:45:57;20.40;42.60
54558;DHT22;40452;50.080;20.040;2023-03-14T18:48:23;20.40;42.60
54558;DHT22;40452;50.080;20.040;2023-03-14T18:50:49;20.40;42.70
54558;DHT22;40452;50.080;20.040;2023-03-14T18:53:18;20.40;42.60
54558;DHT22;40452;50.080;20.040;2023-03-14T18:55:48;20.50;42.70
54558;DHT22;40452;50.080;20.040;2023-03-14T18:58:17;20.40;42.60
54558;DHT22;40452;50.080;20.040;2023-03-14T19:00:48;20.50;42.70
54558;DHT22;40452;50.080;20.040;2023-03-14T19:03:13;20.40;42.70
54558;DHT22;40452;50.080;20.040;2023-03-14T19:05:42;20.40;42.80
54558;DHT22;40452;50.080;20.040;2023-03-14T19:08:08;20.50;42.80
54558;DHT22;40452;50.080;20.040;2023-03-14T19:10:34;20.50;42.80
54558;DHT22;40452;50.080;20.040;2023-03-14T19:12:59;20.50;42.80
54558;DHT22;40452;50.080;20.040;2023-03-14T19:15:25;20.50;42.80
54558;DHT22;40452;50.080;20.040;2023-03-14T19:17:50;20.50;42.80
54558;DHT22;40452;50.080;20.040;2023-03-14T19:20:19;20.50;42.80
54558;DHT22;40452;50.080;20.040;2023-03-14T19:22:46;20.50;42.90
54558;DHT22;40452;50.080;20.040;2023-03-14T19:25:13;20.50;42.80
54558;DHT22;40452;50.080;20.040;2023-03-14T19:27:38;20.50;42.80
54558;DHT22;40452;50.080;20.040;2023-03-14T19:30:04;20.50;42.90
54558;DHT22;40452;50.080;20.040;2023-03-14T19:32:30;20.50;42.90
54558;DHT22;40452;50.080;20.040;2023-03-14T19:34:56;20.50;42.90
54558;DHT22;40452;50.080;20.040;2023-03-14T19:37:21;20.50;42.90
54558;DHT22;40452;50.080;20.040;2023-03-14T19:39:50;20.50;43.00
54558;DHT22;40452;50.080;20.040;2023-03-14T19:42:22;20.50;43.00
54558;DHT22;40452;50.080;20.040;2023-03-14T19:44:49;20.50;43.00
54558;DHT22;40452;50.080;20.040;2023-03-14T19:47:18;20.50;43.00
54558;DHT22;40452;50.080;20.040;2023-03-14T19:49:45;20.50;43.00
54558;DHT22;40452;50.080;20.040;2023-03-14T19:52:11;20.50;43.00
54558;DHT22;40452;50.080;20.040;2023-03-14T19:57:28;20.50;43.10
54558;DHT22;40452;50.080;20.040;2023-03-14T19:59:56;20.50;43.10
54558;DHT22;40452;50.080;20.040;2023-03-14T20:03:01;20.50;43.10
54558;DHT22;40452;50.080;20.040;2023-03-14T20:05:27;20.50;43.10
54558;DHT22;40452;50.080;20.040;2023-03-14T20:07:56;20.50;43.20
54558;DHT22;40452;50.080;20.040;2023-03-14T20:10:22;20.50;43.30
54558;DHT22;40452;50.080;20.040;2023-03-14T20:12:48;20.50;43.30
